Time;durP1;ratioP1;P1;durP2;ratioP2;P2;SDS_P1;SDS_P2;PMS_P1;PMS_P2;Temp;Humidity;BMP_temperature;BMP_pressure;BME280_temperature;BME280_humidity;BME280_pressure;Samples;Min_cycle;Max_cycle;Signal;HPM_P1;HPM_P2
2024/03/17 00:06:20;;;;;;;11.3;7.5;;;;;;;9.75;91.26;98783.333333333;;;;
2024/03/17 00:16:20;;;;;;;11;7.2;;;;;;;9.69;91.32;98783.333333333;;;;
2024/03/17 00:27:20;;;;;;;11;7.2;;;;;;;9.56;91.83;98781.666666667;;;;
2024/03/17 00:38:20;;;;;;;11;7.2;;;;;;;9.43;91.53;98786.666666667;;;;
2024/03/17 00:48:20;;;;;;;12.1;7.6;;;;;;;9.39;91.72;98806.666666667;;;;
2024/03/17 00:59:20;;;;;;;12.1;7.6;;;;;;;8.37;87.65;98835;;;;
2024/03/17 01:09:20;;;;;;;12.1;7.6;;;;;;;7.98;87.6;98841.666666667;;;;
2024/03/17 01:20:20;;;;;;;3.9;2.1;;;;;;;7.84;88.42;98856.666666667;;;;
2024/03/17 01:31:20;;;;;;;3.9;2.1;;;;;;;7.69;88.71;98883.333333333;;;;
2024/03/17 01:42:20;;;;;;;3.9;2.1;;;;;;;7.16;84.77;98911.666666667;;;;
2024/03/17 01:53:20;;;;;;;5;1.9;;;;;;;6.82;85.06;98918.333333333;;;;
2024/03/17 02:04:22;;;;;;;5;1.9;;;;;;;6.76;83.06;98945;;;;
2024/03/17 02:14:21;;;;;;;3.7;1.8;;;;;;;6.56;82.38;98960;;;;
2024/03/17 02:24:20;;;;;;;3.7;1.8;;;;;;;6.51;82.03;98981.666666667;;;;
2024/03/17 02:35:20;;;;;;;3.7;1.8;;;;;;;6.54;82.57;99005;;;;
2024/03/17 02:46:20;;;;;;;3.8;1.9;;;;;;;6.32;83.39;99021.666666667;;;;
2024/03/17 02:57:21;;;;;;;3.8;1.9;;;;;;;6.32;84.63;99028.333333333;;;;
2024/03/17 03:08:20;;;;;;;3.8;1.9;;;;;;;6.1;85.97;99036.666666667;;;;
2024/03/17 03:19:20;;;;;;;5.2;2.8;;;;;;;6.09;86.53;99035;;;;
2024/03/17 03:29:20;;;;;;;5.2;2.8;;;;;;;5.91;86.14;99040;;;;
2024/03/17 03:40:20;;;;;;;5.2;2.8;;;;;;;5.91;86.62;99045;;;;
2024/03/17 03:50:20;;;;;;;9.1;4.2;;;;;;;5.85;86.9;99050;;;;
2024/03/17 04:01:21;;;;;;;9.1;4.2;;;;;;;5.85;87.19;99060;;;;
2024/03/17 04:12:20;;;;;;;9.1;4.2;;;;;;;5.84;87.47;99068.333333333;;;;
2024/03/17 04:22:20;;;;;;;13.6;6.5;;;;;;;5.84;87.44;99070;;;;
2024/03/17 04:32:20;;;;;;;13.6;6.5;;;;;;;5.85;87.58;99068.333333333;;;;
2024/03/17 04:43:20;;;;;;;13.6;6.5;;;;;;;5.86;87.33;99076.666666667;;;;
2024/03/17 04:53:20;;;;;;;12.1;4.8;;;;;;;5.7;84.33;99093.333333333;;;;
2024/03/17 05:04:20;;;;;;;12.1;4.8;;;;;;;5.42;80.21;99103.333333333;;;;
2024/03/17 05:14:20;;;;;;;9.5;3.8;;;;;;;5.19;82.75;99120;;;;
2024/03/17 05:25:20;;;;;;;9.5;3.8;;;;;;;5.02;81.49;99131.666666667;;;;
2024/03/17 05:35:20;;;;;;;9.5;3.8;;;;;;;4.78;80.09;99141.666666667;;;;
2024/03/17 05:46:20;;;;;;;5.5;2.5;;;;;;;4.73;80.61;99151.666666667;;;;
2024/03/17 05:57:20;;;;;;;5.5;2.5;;;;;;;4.64;78.89;99165;;;;
2024/03/17 06:08:20;;;;;;;5.5;2.5;;;;;;;4.84;78.63;99171.666666667;;;;
2024/03/17 06:18:20;;;;;;;4.5;2.5;;;;;;;4.99;76.32;99178.333333333;;;;
2024/03/17 06:28:20;;;;;;;4.5;2.5;;;;;;;4.94;73.39;99180;;;;
2024/03/17 06:39:21;;;;;;;4.5;2.5;;;;;;;5.05;73.6;99188.333333333;;;;
2024/03/17 06:50:20;;;;;;;7.9;2.6;;;;;;;5.29;74.59;99198.333333333;;;;
2024/03/17 07:01:20;;;;;;;7.9;2.6;;;;;;;5.55;75.2;99193.333333333;;;;
2024/03/17 07:12:20;;;;;;;7.9;2.6;;;;;;;5.72;71.96;99196.666666667;;;;
2024/03/17 07:23:20;;;;;;;8.4;3.4;;;;;;;5.94;71.08;99185;;;;
2024/03/17 07:33:20;;;;;;;8.4;3.4;;;;;;;5.9;68.2;99185;;;;
2024/03/17 07:44:20;;;;;;;7;3.9;;;;;;;6.4;68.15;99185;;;;
2024/03/17 07:55:20;;;;;;;7;3.9;;;;;;;6.47;66.45;99196.666666667;;;;
2024/03/17 08:06:20;;;;;;;7;3.9;;;;;;;6.46;66.42;99196.666666667;;;;
2024/03/17 08:16:20;;;;;;;7.5;3.4;;;;;;;6.48;65.18;99196.666666667;;;;
2024/03/17 08:26:20;;;;;;;7.5;3.4;;;;;;;6.68;64.93;99196.666666667;;;;
2024/03/17 08:37:20;;;;;;;7.5;3.4;;;;;;;6.89;64.34;99195;;;;
2024/03/17 08:48:20;;;;;;;9.5;3.9;;;;;;;7.17;62.11;99190;;;;
2024/03/17 08:59:20;;;;;;;9.5;3.9;;;;;;;7.7;60.82;99188.333333333;;;;
2024/03/17 09:09:20;;;;;;;9.5;3.9;;;;;;;7.78;59.46;99178.333333333;;;;
2024/03/17 09:19:20;;;;;;;5.8;3.1;;;;;;;7.51;56.58;99180;;;;
2024/03/17 09:29:20;;;;;;;5.8;3.1;;;;;;;7.43;57.98;99176.666666667;;;;
2024/03/17 09:40:20;;;;;;;5.8;3.1;;;;;;;7.84;57.06;99168.333333333;;;;
2024/03/17 09:51:20;;;;;;;5.1;2.6;;;;;;;8.69;57.66;99156.666666667;;;;
2024/03/17 10:01:20;;;;;;;5.1;2.6;;;;;;;8.23;56.37;99155;;;;
2024/03/17 10:11:20;;;;;;;5.1;2.6;;;;;;;8.15;54.8;99153.333333333;;;;
2024/03/17 10:22:20;;;;;;;6;3.1;;;;;;;8.21;55.36;99135;;;;
2024/03/17 10:33:22;;;;;;;6;3.1;;;;;;;8.28;54.63;99133.333333333;;;;
2024/03/17 10:44:20;;;;;;;5.1;2.5;;;;;;;8.66;53.42;99113.333333333;;;;
2024/03/17 10:54:20;;;;;;;5.1;2.5;;;;;;;8.49;55.18;99118.333333333;;;;
2024/03/17 11:05:20;;;;;;;5.1;2.5;;;;;;;8.25;52.13;99125;;;;
2024/03/17 11:16:20;;;;;;;7.3;2.4;;;;;;;8.17;53.04;99108.333333333;;;;
2024/03/17 11:27:22;;;;;;;7.3;2.4;;;;;;;8.43;52.09;99096.666666667;;;;
2024/03/17 11:38:20;;;;;;;7.3;2.4;;;;;;;9.21;52.37;99095;;;;
2024/03/17 11:49:20;;;;;;;7.1;2.2;;;;;;;8.79;50.14;99100;;;;
2024/03/17 12:00:20;;;;;;;7.1;2.2;;;;;;;9.54;48.12;99081.666666667;;;;
2024/03/17 12:11:21;;;;;;;7.1;2.2;;;;;;;8.69;50.12;99071.666666667;;;;
2024/03/17 12:22:21;;;;;;;5;2.2;;;;;;;9.04;51.1;99051.666666667;;;;
2024/03/17 12:32:21;;;;;;;5;2.2;;;;;;;9.42;47.03;99053.333333333;;;;
2024/03/17 12:42:20;;;;;;;5;2.2;;;;;;;10.12;48.5;99033.333333333;;;;
2024/03/17 12:53:22;;;;;;;3.5;1.9;;;;;;;10.51;47.89;99021.666666667;;;;
2024/03/17 13:04:20;;;;;;;3.5;1.9;;;;;;;10.56;44.21;99023.333333333;;;;
2024/03/17 13:15:20;;;;;;;5.2;2.5;;;;;;;10.39;47.1;99016.666666667;;;;
2024/03/17 13:25:21;;;;;;;5.2;2.5;;;;;;;9.99;49.21;99023.333333333;;;;
2024/03/17 13:36:20;;;;;;;5.2;2.5;;;;;;;9.53;48.03;99011.666666667;;;;
2024/03/17 13:46:20;;;;;;;7;2.8;;;;;;;9.88;47.32;98998.333333333;;;;
2024/03/17 13:57:20;;;;;;;7;2.8;;;;;;;10.12;45.53;98986.666666667;;;;
2024/03/17 14:07:20;;;;;;;7;2.8;;;;;;;10.1;45.15;98971.666666667;;;;
2024/03/17 14:18:21;;;;;;;4.1;2.2;;;;;;;9.48;46.95;98980;;;;
2024/03/17 14:29:20;;;;;;;4.1;2.2;;;;;;;8.92;44.76;98980;;;;
2024/03/17 14:39:21;;;;;;;4.1;2.2;;;;;;;8.91;47.57;98978.333333333;;;;
2024/03/17 14:50:20;;;;;;;6;1.6;;;;;;;9.28;45.5;98978.333333333;;;;
2024/03/17 15:00:22;;;;;;;6;1.6;;;;;;;9.47;45.58;98978.333333333;;;;
2024/03/17 15:10:20;;;;;;;6;1.6;;;;;;;9.37;43.59;98981.666666667;;;;
2024/03/17 15:21:20;;;;;;;5.6;1.7;;;;;;;9.42;44.16;98990;;;;
2024/03/17 15:32:20;;;;;;;5.6;1.7;;;;;;;8.66;46.27;98991.666666667;;;;
2024/03/17 15:42:20;;;;;;;5.6;1.7;;;;;;;9.69;42.73;98981.666666667;;;;
2024/03/17 15:52:20;;;;;;;5.2;1.9;;;;;;;10.3;42.33;98976.666666667;;;;
2024/03/17 16:03:23;;;;;;;5.2;1.9;;;;;;;10.77;42.18;98978.333333333;;;;
2024/03/17 16:13:20;;;;;;;4.9;2.9;;;;;;;10.51;42.65;98986.666666667;;;;
2024/03/17 16:23:21;;;;;;;4.9;2.9;;;;;;;8.45;48.39;99000;;;;
2024/03/17 16:34:24;;;;;;;4.9;2.9;;;;;;;7.77;53.27;99013.333333333;;;;
2024/03/17 16:45:20;;;;;;;5.3;2.5;;;;;;;7.1;57.3;99006.666666667;;;;
2024/03/17 16:55:20;;;;;;;5.3;2.5;;;;;;;6.53;59.22;99011.666666667;;;;
2024/03/17 17:06:20;;;;;;;5.3;2.5;;;;;;;6.14;61.36;99028.333333333;;;;
2024/03/17 17:16:20;;;;;;;8.6;4;;;;;;;5.83;62.02;99026.666666667;;;;
2024/03/17 17:27:22;;;;;;;8.6;4;;;;;;;5.51;63.04;99038.333333333;;;;
2024/03/17 17:38:20;;;;;;;8.6;4;;;;;;;5.26;63.61;99048.333333333;;;;
2024/03/17 17:48:21;;;;;;;10.6;3.3;;;;;;;5.12;63.84;99048.333333333;;;;
2024/03/17 17:59:20;;;;;;;10.6;3.3;;;;;;;5.06;63.53;99058.333333333;;;;
2024/03/17 18:09:24;;;;;;;10.6;3.3;;;;;;;4.96;64.25;99060;;;;
2024/03/17 18:20:20;;;;;;;9.1;3.4;;;;;;;4.91;63.3;99053.333333333;;;;
2024/03/17 18:30:22;;;;;;;9.1;3.4;;;;;;;4.84;63.74;99056.666666667;;;;
2024/03/17 18:41:20;;;;;;;9.1;3.4;;;;;;;4.73;64.29;99046.666666667;;;;
2024/03/17 18:51:22;;;;;;;6;3.5;;;;;;;4.7;64.2;99045;;;;
2024/03/17 19:02:21;;;;;;;6;3.5;;;;;;;4.76;64.07;99043.333333333;;;;
2024/03/17 19:13:21;;;;;;;9.2;4.4;;;;;;;4.72;63.69;99038.333333333;;;;
2024/03/17 19:24:20;;;;;;;9.2;4.4;;;;;;;4.59;64.14;99046.666666667;;;;
2024/03/17 19:35:20;;;;;;;9.2;4.4;;;;;;;4.48;65.03;99048.333333333;;;;
2024/03/17 19:45:20;;;;;;;10.4;4.1;;;;;;;4.45;65.41;99055;;;;
2024/03/17 19:56:21;;;;;;;10.4;4.1;;;;;;;4.4;65.84;99048.333333333;;;;
2024/03/17 20:07:20;;;;;;;10.4;4.1;;;;;;;4.3;66.55;99053.333333333;;;;
2024/03/17 20:17:20;;;;;;;8.6;4.4;;;;;;;4.19;66.34;99046.666666667;;;;
2024/03/17 20:27:20;;;;;;;8.6;4.4;;;;;;;4.17;66.55;99045;;;;
2024/03/17 20:38:20;;;;;;;8.6;4.4;;;;;;;4.12;66.92;99048.333333333;;;;
2024/03/17 20:49:21;;;;;;;11.4;5;;;;;;;4.14;67.07;99046.666666667;;;;
2024/03/17 21:00:21;;;;;;;11.4;5;;;;;;;4.16;67.28;99040;;;;
2024/03/17 21:11:20;;;;;;;11.4;5;;;;;;;4.08;68.51;99036.666666667;;;;
2024/03/17 21:22:21;;;;;;;10.9;5.2;;;;;;;4.04;68.9;99036.666666667;;;;
2024/03/17 21:33:20;;;;;;;10.9;5.2;;;;;;;4.1;68.91;99020;;;;
2024/03/17 21:44:21;;;;;;;9.3;4.3;;;;;;;4;69.69;99015;;;;
2024/03/17 21:55:21;;;;;;;9.3;4.3;;;;;;;4.03;69.7;99005;;;;
2024/03/17 22:05:20;;;;;;;9.3;4.3;;;;;;;4;70.51;99008.333333333;;;;
2024/03/17 22:16:21;;;;;;;9.5;4.7;;;;;;;4.01;70.59;98991.666666667;;;;
2024/03/17 22:26:22;;;;;;;9.5;4.7;;;;;;;3.96;70.69;98978.333333333;;;;
2024/03/17 22:37:20;;;;;;;9.5;4.7;;;;;;;3.9;70.03;98978.333333333;;;;
2024/03/17 22:48:21;;;;;;;11.3;5.6;;;;;;;3.83;69.71;98980;;;;
2024/03/17 22:59:20;;;;;;;11.3;5.6;;;;;;;3.8;69.14;98978.333333333;;;;
2024/03/17 23:09:21;;;;;;;11.3;5.6;;;;;;;3.62;68;98980;;;;
2024/03/17 23:20:21;;;;;;;9.9;5.4;;;;;;;3.62;67.66;98978.333333333;;;;
2024/03/17 23:31:21;;;;;;;9.9;5.4;;;;;;;3.58;67.42;98961.666666667;;;;
2024/03/17 23:42:21;;;;;;;8.8;4.2;;;;;;;3.43;68.01;98976.666666667;;;;
2024/03/17 23:53:21;;;;;;;8.8;4.2;;;;;;;3.32;69.41;98968.333333333;;;;
